Terminal Aerodrome Forecast
Issued by NWS

Home | Current Version | Previous Version | Text Only | Print | Product List | Glossary On
Versions: 1 2 3 4 5 6 7 8 9 10 11 12
000
FTUS45 KABQ 272300
TAFLVS
TAF
KLVS 272324Z 2800/2824 24016G25KT P6SM SCT100
     FM280200 29008KT P6SM SKC
     FM281700 22010G17KT P6SM FEW070
     FM282100 22014G22KT P6SM VCTS SCT070CB=

USA.gov is the U.S. government's official web portal to all federal, state and local government web resources and services.